sensor_id;sensor_type;location;lat;lon;timestamp;temperature;humidity
42147;DHT22;27815;43.410;11.852;2023-04-07T00:02:03;5.80;46.50
42147;DHT22;27815;43.410;11.852;2023-04-07T00:06:05;5.80;47.20
42147;DHT22;27815;43.410;11.852;2023-04-07T00:10:08;5.70;47.40
42147;DHT22;27815;43.410;11.852;2023-04-07T00:14:11;5.60;47.50
42147;DHT22;27815;43.410;11.852;2023-04-07T00:18:14;5.60;47.50
42147;DHT22;27815;43.410;11.852;2023-04-07T00:22:17;5.50;47.90
42147;DHT22;27815;43.410;11.852;2023-04-07T00:26:19;5.50;48.10
42147;DHT22;27815;43.410;11.852;2023-04-07T00:30:22;5.40;47.90
42147;DHT22;27815;43.410;11.852;2023-04-07T00:34:25;5.40;47.50
42147;DHT22;27815;43.410;11.852;2023-04-07T00:38:27;5.40;47.40
42147;DHT22;27815;43.410;11.852;2023-04-07T00:42:30;5.30;47.30
42147;DHT22;27815;43.410;11.852;2023-04-07T00:46:34;5.30;47.50
42147;DHT22;27815;43.410;11.852;2023-04-07T00:50:37;5.20;48.20
42147;DHT22;27815;43.410;11.852;2023-04-07T00:54:40;5.10;48.50
42147;DHT22;27815;43.410;11.852;2023-04-07T00:58:43;5.00;48.50
42147;DHT22;27815;43.410;11.852;2023-04-07T01:02:55;5.00;48.70
42147;DHT22;27815;43.410;11.852;2023-04-07T01:07:04;5.00;49.00
42147;DHT22;27815;43.410;11.852;2023-04-07T01:15:29;5.00;48.90
42147;DHT22;27815;43.410;11.852;2023-04-07T01:28:40;4.80;49.10
42147;DHT22;27815;43.410;11.852;2023-04-07T01:32:48;4.60;49.60
42147;DHT22;27815;43.410;11.852;2023-04-07T01:36:53;4.60;50.40
42147;DHT22;27815;43.410;11.852;2023-04-07T01:40:57;4.60;50.50
42147;DHT22;27815;43.410;11.852;2023-04-07T01:45:00;4.50;50.40
42147;DHT22;27815;43.410;11.852;2023-04-07T01:49:03;4.40;50.80
42147;DHT22;27815;43.410;11.852;2023-04-07T01:53:07;4.30;51.20
42147;DHT22;27815;43.410;11.852;2023-04-07T01:57:10;4.20;52.20
42147;DHT22;27815;43.410;11.852;2023-04-07T02:01:13;4.20;51.60
42147;DHT22;27815;43.410;11.852;2023-04-07T02:05:16;4.00;51.20
42147;DHT22;27815;43.410;11.852;2023-04-07T02:09:20;3.90;51.10
42147;DHT22;27815;43.410;11.852;2023-04-07T02:13:24;3.90;51.10
42147;DHT22;27815;43.410;11.852;2023-04-07T02:17:27;3.90;51.10
42147;DHT22;27815;43.410;11.852;2023-04-07T02:21:31;3.90;51.30
42147;DHT22;27815;43.410;11.852;2023-04-07T02:25:34;4.00;51.20
42147;DHT22;27815;43.410;11.852;2023-04-07T02:29:39;4.10;51.20
42147;DHT22;27815;43.410;11.852;2023-04-07T02:33:42;4.10;51.80
42147;DHT22;27815;43.410;11.852;2023-04-07T02:37:46;4.10;51.60
42147;DHT22;27815;43.410;11.852;2023-04-07T02:41:49;4.10;52.40
42147;DHT22;27815;43.410;11.852;2023-04-07T02:45:52;4.10;52.90
42147;DHT22;27815;43.410;11.852;2023-04-07T02:49:54;4.10;52.80
42147;DHT22;27815;43.410;11.852;2023-04-07T02:53:57;4.20;53.30
42147;DHT22;27815;43.410;11.852;2023-04-07T02:57:59;4.20;52.70
42147;DHT22;27815;43.410;11.852;2023-04-07T03:02:20;4.20;52.30
42147;DHT22;27815;43.410;11.852;2023-04-07T03:06:23;4.10;52.60
42147;DHT22;27815;43.410;11.852;2023-04-07T03:10:41;3.90;53.30
42147;DHT22;27815;43.410;11.852;2023-04-07T03:14:48;3.80;53.20
42147;DHT22;27815;43.410;11.852;2023-04-07T03:18:51;3.80;52.90
42147;DHT22;27815;43.410;11.852;2023-04-07T03:22:55;3.70;54.00
42147;DHT22;27815;43.410;11.852;2023-04-07T03:27:02;3.50;54.60
42147;DHT22;27815;43.410;11.852;2023-04-07T03:31:13;3.50;54.90
42147;DHT22;27815;43.410;11.852;2023-04-07T03:35:16;3.40;54.80
42147;DHT22;27815;43.410;11.852;2023-04-07T03:39:19;3.30;54.90
42147;DHT22;27815;43.410;11.852;2023-04-07T03:43:24;3.30;55.40
42147;DHT22;27815;43.410;11.852;2023-04-07T03:47:27;3.20;56.00
42147;DHT22;27815;43.410;11.852;2023-04-07T03:51:34;3.10;56.20
42147;DHT22;27815;43.410;11.852;2023-04-07T03:55:41;3.10;55.60
42147;DHT22;27815;43.410;11.852;2023-04-07T03:59:54;3.10;55.30
42147;DHT22;27815;43.410;11.852;2023-04-07T04:03:57;3.10;55.30
42147;DHT22;27815;43.410;11.852;2023-04-07T04:08:03;3.20;55.10
42147;DHT22;27815;43.410;11.852;2023-04-07T04:12:09;3.10;55.40
42147;DHT22;27815;43.410;11.852;2023-04-07T04:16:17;3.10;55.30
42147;DHT22;27815;43.410;11.852;2023-04-07T04:20:22;3.10;55.00
42147;DHT22;27815;43.410;11.852;2023-04-07T04:24:26;3.10;54.80
42147;DHT22;27815;43.410;11.852;2023-04-07T04:28:33;3.10;54.70
42147;DHT22;27815;43.410;11.852;2023-04-07T04:32:38;3.10;54.50
42147;DHT22;27815;43.410;11.852;2023-04-07T04:36:42;3.00;55.10
42147;DHT22;27815;43.410;11.852;2023-04-07T04:40:46;3.00;55.10
42147;DHT22;27815;43.410;11.852;2023-04-07T04:44:51;2.90;55.00
42147;DHT22;27815;43.410;11.852;2023-04-07T04:48:56;2.80;55.60
42147;DHT22;27815;43.410;11.852;2023-04-07T04:53:00;2.80;56.20
42147;DHT22;27815;43.410;11.852;2023-04-07T04:57:05;2.70;57.50
42147;DHT22;27815;43.410;11.852;2023-04-07T05:01:09;2.60;58.90
42147;DHT22;27815;43.410;11.852;2023-04-07T05:05:16;2.60;58.70
42147;DHT22;27815;43.410;11.852;2023-04-07T05:09:19;2.60;58.70
42147;DHT22;27815;43.410;11.852;2023-04-07T05:13:23;2.60;59.00
42147;DHT22;27815;43.410;11.852;2023-04-07T05:17:27;2.70;59.00
42147;DHT22;27815;43.410;11.852;2023-04-07T05:21:33;2.80;58.50
42147;DHT22;27815;43.410;11.852;2023-04-07T05:25:38;2.90;58.30
42147;DHT22;27815;43.410;11.852;2023-04-07T05:29:42;3.00;58.10
42147;DHT22;27815;43.410;11.852;2023-04-07T05:33:54;3.10;57.70
42147;DHT22;27815;43.410;11.852;2023-04-07T05:38:01;3.20;57.40
42147;DHT22;27815;43.410;11.852;2023-04-07T05:42:06;3.30;57.20
42147;DHT22;27815;43.410;11.852;2023-04-07T05:46:11;3.30;57.60
42147;DHT22;27815;43.410;11.852;2023-04-07T05:50:22;3.40;57.80
42147;DHT22;27815;43.410;11.852;2023-04-07T05:54:25;3.50;58.80
42147;DHT22;27815;43.410;11.852;2023-04-07T05:58:29;3.50;59.00
42147;DHT22;27815;43.410;11.852;2023-04-07T06:02:33;3.60;58.50
42147;DHT22;27815;43.410;11.852;2023-04-07T06:06:36;3.50;58.10
42147;DHT22;27815;43.410;11.852;2023-04-07T06:10:39;3.30;57.90
42147;DHT22;27815;43.410;11.852;2023-04-07T06:14:46;3.30;57.80
42147;DHT22;27815;43.410;11.852;2023-04-07T06:18:53;3.50;58.40
42147;DHT22;27815;43.410;11.852;2023-04-07T06:22:55;3.90;58.20
42147;DHT22;27815;43.410;11.852;2023-04-07T06:26:59;4.20;57.90
42147;DHT22;27815;43.410;11.852;2023-04-07T06:31:02;4.60;57.10
42147;DHT22;27815;43.410;11.852;2023-04-07T06:35:05;4.80;56.60
42147;DHT22;27815;43.410;11.852;2023-04-07T06:39:08;5.10;56.40
42147;DHT22;27815;43.410;11.852;2023-04-07T06:43:11;5.50;56.10
42147;DHT22;27815;43.410;11.852;2023-04-07T06:47:27;5.90;55.60
42147;DHT22;27815;43.410;11.852;2023-04-07T06:51:30;6.30;55.00
42147;DHT22;27815;43.410;11.852;2023-04-07T06:55:33;6.60;54.60
42147;DHT22;27815;43.410;11.852;2023-04-07T06:59:37;6.80;54.50
42147;DHT22;27815;43.410;11.852;2023-04-07T07:03:40;6.90;54.40
42147;DHT22;27815;43.410;11.852;2023-04-07T07:07:43;7.00;54.30
42147;DHT22;27815;43.410;11.852;2023-04-07T07:11:45;7.20;54.10
42147;DHT22;27815;43.410;11.852;2023-04-07T07:15:49;7.50;53.80
42147;DHT22;27815;43.410;11.852;2023-04-07T07:19:53;7.90;53.50
42147;DHT22;27815;43.410;11.852;2023-04-07T07:23:56;8.40;53.00
42147;DHT22;27815;43.410;11.852;2023-04-07T07:27:58;8.80;52.50
42147;DHT22;27815;43.410;11.852;2023-04-07T07:32:01;9.00;52.20
42147;DHT22;27815;43.410;11.852;2023-04-07T07:36:04;9.00;52.20
42147;DHT22;27815;43.410;11.852;2023-04-07T07:40:07;9.30;52.10
42147;DHT22;27815;43.410;11.852;2023-04-07T07:44:10;9.60;51.90
42147;DHT22;27815;43.410;11.852;2023-04-07T07:48:12;10.00;51.60
42147;DHT22;27815;43.410;11.852;2023-04-07T07:52:15;10.30;51.20
42147;DHT22;27815;43.410;11.852;2023-04-07T07:56:18;10.50;50.90
42147;DHT22;27815;43.410;11.852;2023-04-07T08:00:20;10.50;50.90
42147;DHT22;27815;43.410;11.852;2023-04-07T08:04:25;10.70;50.80
42147;DHT22;27815;43.410;11.852;2023-04-07T08:08:28;11.10;50.50
42147;DHT22;27815;43.410;11.852;2023-04-07T08:12:30;11.40;50.00
42147;DHT22;27815;43.410;11.852;2023-04-07T08:16:33;11.70;49.60
42147;DHT22;27815;43.410;11.852;2023-04-07T08:20:35;11.90;49.40
42147;DHT22;27815;43.410;11.852;2023-04-07T08:24:38;12.00;49.30
42147;DHT22;27815;43.410;11.852;2023-04-07T08:28:41;12.20;49.10
42147;DHT22;27815;43.410;11.852;2023-04-07T08:32:43;12.40;48.80
42147;DHT22;27815;43.410;11.852;2023-04-07T08:36:46;12.70;47.40
42147;DHT22;27815;43.410;11.852;2023-04-07T08:40:51;12.90;46.50
42147;DHT22;27815;43.410;11.852;2023-04-07T08:44:57;12.90;46.60
42147;DHT22;27815;43.410;11.852;2023-04-07T08:49:02;13.10;45.80
42147;DHT22;27815;43.410;11.852;2023-04-07T08:53:05;13.30;44.50
42147;DHT22;27815;43.410;11.852;2023-04-07T08:57:09;13.40;43.40
42147;DHT22;27815;43.410;11.852;2023-04-07T09:01:13;13.50;42.60
42147;DHT22;27815;43.410;11.852;2023-04-07T09:05:16;13.70;43.00
42147;DHT22;27815;43.410;11.852;2023-04-07T09:09:18;13.80;42.20
42147;DHT22;27815;43.410;11.852;2023-04-07T09:13:21;14.00;41.50
42147;DHT22;27815;43.410;11.852;2023-04-07T09:17:24;14.20;40.10
42147;DHT22;27815;43.410;11.852;2023-04-07T09:21:45;14.20;38.80
42147;DHT22;27815;43.410;11.852;2023-04-07T09:25:48;14.40;38.70
42147;DHT22;27815;43.410;11.852;2023-04-07T09:29:51;14.50;38.80
42147;DHT22;27815;43.410;11.852;2023-04-07T09:34:34;14.60;38.20
42147;DHT22;27815;43.410;11.852;2023-04-07T09:38:39;14.70;37.60
42147;DHT22;27815;43.410;11.852;2023-04-07T09:42:45;14.80;37.60
42147;DHT22;27815;43.410;11.852;2023-04-07T09:50:52;15.10;38.30
42147;DHT22;27815;43.410;11.852;2023-04-07T09:55:06;15.20;38.00
42147;DHT22;27815;43.410;11.852;2023-04-07T09:59:08;15.30;38.00
42147;DHT22;27815;43.410;11.852;2023-04-07T10:03:12;15.40;38.40
42147;DHT22;27815;43.410;11.852;2023-04-07T10:07:15;15.60;38.60
42147;DHT22;27815;43.410;11.852;2023-04-07T10:11:18;15.80;37.90
42147;DHT22;27815;43.410;11.852;2023-04-07T10:15:21;15.90;37.00
42147;DHT22;27815;43.410;11.852;2023-04-07T10:19:24;16.00;36.70
42147;DHT22;27815;43.410;11.852;2023-04-07T10:27:32;16.10;35.60
42147;DHT22;27815;43.410;11.852;2023-04-07T10:31:35;16.20;35.60
42147;DHT22;27815;43.410;11.852;2023-04-07T10:48:42;16.60;35.40
42147;DHT22;27815;43.410;11.852;2023-04-07T10:53:06;16.70;35.30
42147;DHT22;27815;43.410;11.852;2023-04-07T10:57:13;16.70;34.90
42147;DHT22;27815;43.410;11.852;2023-04-07T11:01:17;16.80;34.50
42147;DHT22;27815;43.410;11.852;2023-04-07T11:05:21;17.00;34.60
42147;DHT22;27815;43.410;11.852;2023-04-07T11:09:24;17.00;34.70
42147;DHT22;27815;43.410;11.852;2023-04-07T11:13:27;17.10;34.40
42147;DHT22;27815;43.410;11.852;2023-04-07T11:17:29;17.40;34.80
42147;DHT22;27815;43.410;11.852;2023-04-07T11:21:32;17.30;34.70
42147;DHT22;27815;43.410;11.852;2023-04-07T11:25:35;17.20;34.90
42147;DHT22;27815;43.410;11.852;2023-04-07T11:29:38;17.20;33.80
42147;DHT22;27815;43.410;11.852;2023-04-07T11:33:41;17.50;34.10
42147;DHT22;27815;43.410;11.852;2023-04-07T11:37:44;17.70;34.10
42147;DHT22;27815;43.410;11.852;2023-04-07T11:41:48;17.50;34.00
42147;DHT22;27815;43.410;11.852;2023-04-07T11:46:07;17.80;33.90
42147;DHT22;27815;43.410;11.852;2023-04-07T11:50:10;18.00;33.30
42147;DHT22;27815;43.410;11.852;2023-04-07T11:54:15;18.00;32.70
42147;DHT22;27815;43.410;11.852;2023-04-07T11:58:18;18.00;32.70
42147;DHT22;27815;43.410;11.852;2023-04-07T12:02:30;18.20;31.30
42147;DHT22;27815;43.410;11.852;2023-04-07T12:06:34;18.30;31.50
42147;DHT22;27815;43.410;11.852;2023-04-07T12:10:39;18.40;29.80
42147;DHT22;27815;43.410;11.852;2023-04-07T12:14:43;18.50;28.60
42147;DHT22;27815;43.410;11.852;2023-04-07T12:18:45;18.60;29.20
42147;DHT22;27815;43.410;11.852;2023-04-07T12:22:48;18.90;29.60
42147;DHT22;27815;43.410;11.852;2023-04-07T12:26:50;19.00;30.00
42147;DHT22;27815;43.410;11.852;2023-04-07T12:30:54;19.00;30.30
42147;DHT22;27815;43.410;11.852;2023-04-07T12:34:58;18.90;30.50
42147;DHT22;27815;43.410;11.852;2023-04-07T12:39:00;18.70;30.60
42147;DHT22;27815;43.410;11.852;2023-04-07T12:43:04;18.80;30.70
42147;DHT22;27815;43.410;11.852;2023-04-07T12:47:07;18.80;30.90
42147;DHT22;27815;43.410;11.852;2023-04-07T12:51:09;18.80;30.90
42147;DHT22;27815;43.410;11.852;2023-04-07T12:55:12;18.80;30.30
42147;DHT22;27815;43.410;11.852;2023-04-07T12:59:15;18.70;30.80
42147;DHT22;27815;43.410;11.852;2023-04-07T13:03:18;18.60;30.50
42147;DHT22;27815;43.410;11.852;2023-04-07T13:07:21;18.60;30.80
42147;DHT22;27815;43.410;11.852;2023-04-07T13:11:24;18.80;30.80
42147;DHT22;27815;43.410;11.852;2023-04-07T13:15:27;19.00;29.80
42147;DHT22;27815;43.410;11.852;2023-04-07T13:19:30;19.00;30.30
42147;DHT22;27815;43.410;11.852;2023-04-07T13:23:33;19.10;30.70
42147;DHT22;27815;43.410;11.852;2023-04-07T13:27:44;19.40;30.60
42147;DHT22;27815;43.410;11.852;2023-04-07T13:31:48;19.40;30.10
42147;DHT22;27815;43.410;11.852;2023-04-07T13:35:50;19.10;30.30
42147;DHT22;27815;43.410;11.852;2023-04-07T13:39:53;18.90;30.00
42147;DHT22;27815;43.410;11.852;2023-04-07T13:43:56;19.00;29.60
42147;DHT22;27815;43.410;11.852;2023-04-07T13:47:59;19.00;29.20
42147;DHT22;27815;43.410;11.852;2023-04-07T13:52:02;19.00;28.70
42147;DHT22;27815;43.410;11.852;2023-04-07T13:56:04;18.80;28.90
42147;DHT22;27815;43.410;11.852;2023-04-07T14:00:09;18.80;29.20
42147;DHT22;27815;43.410;11.852;2023-04-07T14:04:12;19.00;29.30
42147;DHT22;27815;43.410;11.852;2023-04-07T14:08:15;19.00;29.00
42147;DHT22;27815;43.410;11.852;2023-04-07T14:12:20;18.70;29.30
42147;DHT22;27815;43.410;11.852;2023-04-07T14:16:23;18.70;29.40
42147;DHT22;27815;43.410;11.852;2023-04-07T14:20:26;18.80;29.50
42147;DHT22;27815;43.410;11.852;2023-04-07T14:24:29;18.90;29.70
42147;DHT22;27815;43.410;11.852;2023-04-07T14:28:32;18.70;29.80
42147;DHT22;27815;43.410;11.852;2023-04-07T14:32:35;18.60;29.90
42147;DHT22;27815;43.410;11.852;2023-04-07T14:36:37;18.70;30.00
42147;DHT22;27815;43.410;11.852;2023-04-07T14:40:40;18.60;30.10
42147;DHT22;27815;43.410;11.852;2023-04-07T14:44:43;18.50;30.10
42147;DHT22;27815;43.410;11.852;2023-04-07T14:48:45;18.60;29.80
42147;DHT22;27815;43.410;11.852;2023-04-07T14:52:48;18.70;29.20
42147;DHT22;27815;43.410;11.852;2023-04-07T14:56:51;18.80;29.60
42147;DHT22;27815;43.410;11.852;2023-04-07T15:00:54;18.80;29.70
42147;DHT22;27815;43.410;11.852;2023-04-07T15:04:56;18.90;29.50
42147;DHT22;27815;43.410;11.852;2023-04-07T15:08:59;18.70;29.30
42147;DHT22;27815;43.410;11.852;2023-04-07T15:13:02;18.50;29.70
42147;DHT22;27815;43.410;11.852;2023-04-07T15:17:05;18.50;29.60
42147;DHT22;27815;43.410;11.852;2023-04-07T15:21:08;18.50;29.90
42147;DHT22;27815;43.410;11.852;2023-04-07T15:25:10;18.60;29.90
42147;DHT22;27815;43.410;11.852;2023-04-07T15:29:13;18.40;30.00
42147;DHT22;27815;43.410;11.852;2023-04-07T15:33:16;18.20;30.30
42147;DHT22;27815;43.410;11.852;2023-04-07T15:37:19;18.00;30.40
42147;DHT22;27815;43.410;11.852;2023-04-07T15:41:22;17.90;30.60
42147;DHT22;27815;43.410;11.852;2023-04-07T15:45:24;17.80;30.80
42147;DHT22;27815;43.410;11.852;2023-04-07T15:49:27;17.60;31.20
42147;DHT22;27815;43.410;11.852;2023-04-07T15:53:30;17.50;31.50
42147;DHT22;27815;43.410;11.852;2023-04-07T15:57:32;17.50;31.90
42147;DHT22;27815;43.410;11.852;2023-04-07T16:01:35;17.50;32.10
42147;DHT22;27815;43.410;11.852;2023-04-07T16:05:39;17.30;32.30
42147;DHT22;27815;43.410;11.852;2023-04-07T16:09:42;17.10;32.70
42147;DHT22;27815;43.410;11.852;2023-04-07T16:13:44;17.00;33.00
42147;DHT22;27815;43.410;11.852;2023-04-07T16:17:48;17.00;33.00
42147;DHT22;27815;43.410;11.852;2023-04-07T16:21:51;16.80;33.20
42147;DHT22;27815;43.410;11.852;2023-04-07T16:25:53;16.80;33.40
42147;DHT22;27815;43.410;11.852;2023-04-07T16:29:56;16.60;33.50
42147;DHT22;27815;43.410;11.852;2023-04-07T16:33:59;16.50;33.80
42147;DHT22;27815;43.410;11.852;2023-04-07T16:38:03;16.30;34.60
42147;DHT22;27815;43.410;11.852;2023-04-07T16:42:07;16.10;35.40
42147;DHT22;27815;43.410;11.852;2023-04-07T16:46:10;15.90;36.00
42147;DHT22;27815;43.410;11.852;2023-04-07T16:50:13;15.70;36.10
42147;DHT22;27815;43.410;11.852;2023-04-07T16:54:16;15.60;36.30
42147;DHT22;27815;43.410;11.852;2023-04-07T16:58:22;15.50;36.50
42147;DHT22;27815;43.410;11.852;2023-04-07T17:02:24;15.40;36.60
42147;DHT22;27815;43.410;11.852;2023-04-07T17:06:29;15.30;37.00
42147;DHT22;27815;43.410;11.852;2023-04-07T17:10:31;15.20;37.40
42147;DHT22;27815;43.410;11.852;2023-04-07T17:14:34;15.20;37.60
42147;DHT22;27815;43.410;11.852;2023-04-07T17:18:37;15.10;38.10
42147;DHT22;27815;43.410;11.852;2023-04-07T17:22:39;15.00;38.40
42147;DHT22;27815;43.410;11.852;2023-04-07T17:26:43;15.00;38.50
42147;DHT22;27815;43.410;11.852;2023-04-07T17:30:47;15.00;39.10
42147;DHT22;27815;43.410;11.852;2023-04-07T17:34:50;14.90;39.10
42147;DHT22;27815;43.410;11.852;2023-04-07T17:38:53;14.80;39.20
42147;DHT22;27815;43.410;11.852;2023-04-07T17:42:56;14.80;39.70
42147;DHT22;27815;43.410;11.852;2023-04-07T17:46:58;14.70;39.90
42147;DHT22;27815;43.410;11.852;2023-04-07T17:51:02;14.70;39.90
42147;DHT22;27815;43.410;11.852;2023-04-07T17:55:08;14.50;40.90
42147;DHT22;27815;43.410;11.852;2023-04-07T17:59:11;14.50;40.70
42147;DHT22;27815;43.410;11.852;2023-04-07T18:03:14;14.40;40.90
42147;DHT22;27815;43.410;11.852;2023-04-07T18:07:17;14.30;40.90
42147;DHT22;27815;43.410;11.852;2023-04-07T18:11:19;14.20;41.30
42147;DHT22;27815;43.410;11.852;2023-04-07T18:15:22;14.10;41.50
42147;DHT22;27815;43.410;11.852;2023-04-07T18:19:25;14.10;41.60
42147;DHT22;27815;43.410;11.852;2023-04-07T18:23:32;14.10;41.50
42147;DHT22;27815;43.410;11.852;2023-04-07T18:27:35;14.00;41.70
42147;DHT22;27815;43.410;11.852;2023-04-07T18:31:38;14.00;41.70
42147;DHT22;27815;43.410;11.852;2023-04-07T18:35:41;14.00;41.90
42147;DHT22;27815;43.410;11.852;2023-04-07T18:39:44;14.00;42.20
42147;DHT22;27815;43.410;11.852;2023-04-07T18:43:46;14.00;42.90
42147;DHT22;27815;43.410;11.852;2023-04-07T18:47:50;13.90;42.70
42147;DHT22;27815;43.410;11.852;2023-04-07T18:51:52;14.00;42.90
42147;DHT22;27815;43.410;11.852;2023-04-07T18:55:55;14.00;43.60
42147;DHT22;27815;43.410;11.852;2023-04-07T18:59:58;13.90;44.30
42147;DHT22;27815;43.410;11.852;2023-04-07T19:04:01;13.90;43.80
42147;DHT22;27815;43.410;11.852;2023-04-07T19:08:04;13.80;44.00
42147;DHT22;27815;43.410;11.852;2023-04-07T19:12:07;13.70;44.60
42147;DHT22;27815;43.410;11.852;2023-04-07T19:16:11;13.60;45.30
42147;DHT22;27815;43.410;11.852;2023-04-07T19:20:13;13.50;45.80
42147;DHT22;27815;43.410;11.852;2023-04-07T19:24:16;13.30;46.80
42147;DHT22;27815;43.410;11.852;2023-04-07T19:28:18;13.20;46.90
42147;DHT22;27815;43.410;11.852;2023-04-07T19:32:21;13.20;46.60
42147;DHT22;27815;43.410;11.852;2023-04-07T19:36:24;13.10;46.40
42147;DHT22;27815;43.410;11.852;2023-04-07T19:40:27;13.10;46.30
42147;DHT22;27815;43.410;11.852;2023-04-07T19:44:32;13.00;46.20
42147;DHT22;27815;43.410;11.852;2023-04-07T19:48:36;12.90;46.10
42147;DHT22;27815;43.410;11.852;2023-04-07T19:52:39;12.90;46.10
42147;DHT22;27815;43.410;11.852;2023-04-07T19:56:44;12.80;46.20
42147;DHT22;27815;43.410;11.852;2023-04-07T20:00:47;12.70;46.30
42147;DHT22;27815;43.410;11.852;2023-04-07T20:04:52;12.60;46.30
42147;DHT22;27815;43.410;11.852;2023-04-07T20:08:54;12.50;46.40
42147;DHT22;27815;43.410;11.852;2023-04-07T20:12:57;12.50;46.40
42147;DHT22;27815;43.410;11.852;2023-04-07T20:17:00;12.50;46.60
42147;DHT22;27815;43.410;11.852;2023-04-07T20:21:03;12.50;46.60
42147;DHT22;27815;43.410;11.852;2023-04-07T20:25:09;12.50;46.60
42147;DHT22;27815;43.410;11.852;2023-04-07T20:29:11;12.50;46.70
42147;DHT22;27815;43.410;11.852;2023-04-07T20:33:14;12.50;46.60
42147;DHT22;27815;43.410;11.852;2023-04-07T20:37:21;12.50;46.80
42147;DHT22;27815;43.410;11.852;2023-04-07T20:41:24;12.50;46.80
42147;DHT22;27815;43.410;11.852;2023-04-07T20:45:43;12.50;46.80
42147;DHT22;27815;43.410;11.852;2023-04-07T20:50:02;12.50;46.80
42147;DHT22;27815;43.410;11.852;2023-04-07T20:54:20;12.50;48.70
42147;DHT22;27815;43.410;11.852;2023-04-07T20:58:38;12.30;51.20
42147;DHT22;27815;43.410;11.852;2023-04-07T21:03:28;12.20;52.50
42147;DHT22;27815;43.410;11.852;2023-04-07T21:08:05;12.30;52.00
42147;DHT22;27815;43.410;11.852;2023-04-07T21:12:24;12.30;51.80
42147;DHT22;27815;43.410;11.852;2023-04-07T21:16:43;12.20;52.10
42147;DHT22;27815;43.410;11.852;2023-04-07T21:21:24;12.20;52.20
42147;DHT22;27815;43.410;11.852;2023-04-07T21:26:00;12.10;52.80
42147;DHT22;27815;43.410;11.852;2023-04-07T21:30:45;12.10;52.90
42147;DHT22;27815;43.410;11.852;2023-04-07T21:35:27;12.00;53.30
42147;DHT22;27815;43.410;11.852;2023-04-07T21:39:52;12.00;53.60
42147;DHT22;27815;43.410;11.852;2023-04-07T21:44:20;12.00;53.90
42147;DHT22;27815;43.410;11.852;2023-04-07T21:48:49;12.00;54.00
42147;DHT22;27815;43.410;11.852;2023-04-07T21:53:06;12.00;54.50
42147;DHT22;27815;43.410;11.852;2023-04-07T21:57:30;12.00;55.10
42147;DHT22;27815;43.410;11.852;2023-04-07T22:01:51;12.00;56.40
42147;DHT22;27815;43.410;11.852;2023-04-07T22:06:31;12.00;57.00
42147;DHT22;27815;43.410;11.852;2023-04-07T22:10:59;12.00;57.30
42147;DHT22;27815;43.410;11.852;2023-04-07T22:15:28;12.00;57.70
42147;DHT22;27815;43.410;11.852;2023-04-07T22:19:55;12.00;58.20
42147;DHT22;27815;43.410;11.852;2023-04-07T22:24:33;12.00;58.00
42147;DHT22;27815;43.410;11.852;2023-04-07T22:28:57;12.00;58.40
42147;DHT22;27815;43.410;11.852;2023-04-07T22:33:45;12.00;59.60
42147;DHT22;27815;43.410;11.852;2023-04-07T22:38:14;12.00;60.10
42147;DHT22;27815;43.410;11.852;2023-04-07T22:42:38;11.90;60.40
42147;DHT22;27815;43.410;11.852;2023-04-07T22:46:57;11.90;61.20
42147;DHT22;27815;43.410;11.852;2023-04-07T22:51:22;11.80;61.30
42147;DHT22;27815;43.410;11.852;2023-04-07T22:56:07;11.80;61.70
42147;DHT22;27815;43.410;11.852;2023-04-07T23:00:59;11.80;61.70
42147;DHT22;27815;43.410;11.852;2023-04-07T23:05:37;11.70;62.00
42147;DHT22;27815;43.410;11.852;2023-04-07T23:09:56;11.60;62.30
42147;DHT22;27815;43.410;11.852;2023-04-07T23:14:32;11.60;63.30
42147;DHT22;27815;43.410;11.852;2023-04-07T23:18:49;11.50;63.30
42147;DHT22;27815;43.410;11.852;2023-04-07T23:23:06;11.40;64.30
42147;DHT22;27815;43.410;11.852;2023-04-07T23:27:12;11.30;64.70
42147;DHT22;27815;43.410;11.852;2023-04-07T23:31:31;11.30;65.90
42147;DHT22;27815;43.410;11.852;2023-04-07T23:35:51;11.10;66.10
42147;DHT22;27815;43.410;11.852;2023-04-07T23:40:38;11.00;67.10
42147;DHT22;27815;43.410;11.852;2023-04-07T23:45:00;10.90;68.10
42147;DHT22;27815;43.410;11.852;2023-04-07T23:49:56;10.60;68.20
42147;DHT22;27815;43.410;11.852;2023-04-07T23:54:14;10.30;69.30
42147;DHT22;27815;43.410;11.852;2023-04-07T23:58:44;10.00;70.40
